Airfield :
LOGIN :

Register | Disclaimer

   EN    FR    IT 

 










Legend :    VFR   Marginal VFR   IFR   Intensive IFR   Very Intensive IFR
Visi :
Ceiling :
>= 8 km
>= 3000ft
5 to 8 km
1000 to 3000 ft
1500m to 5 km
500 to 1000 ft
800 to 1500m
200 to 500 ft
< 800m
< 200 ft
Symbols :   Thunderstorms  Fog  Heavy snow  Heavy precipitations  Wind > 20 kt
SIGMETs :     Misc.  Thunderstorms  Icing  Turbulence  Mountain Waves  Volcanic Ashes






- Airport Elevation : 277 ft
- IATA code : JER


EGJJ - Jersey

CURRENT METAR :
  • 092120Z AUTO 32005KT 300V360 9999 FEW029/// 08/03 Q1027

EXPIRED METARs :
  • 092050Z 33004KT 9999 FEW029 08/03 Q1026
  • 092020Z 32005KT 9999 FEW030 08/03 Q1027
  • 091950Z 32006KT 9999 FEW034 08/03 Q1026
  • 091920Z 32006KT 290V350 9999 FEW036 08/03 Q1026
  • 091850Z 33007KT 300V360 9999 FEW033 08/03 Q1025

TAF TAF EGJJ
Valid from the 09 at 21:00 until the 10 at 06:00 UTC


092002Z 0921/1006 29007KT 9999 FEW035
BECMG 1003/1005 21015KT
ATIS : +44 1534 498 073



MET'MAP, your aeronautical weather chart ! - Copyright ORBIFLY December 2007 - Disclaimer

ORBIFLY MET'MAP TEAM :

Programming & Development : Alexandra Zaïnal
Concept & original design : Baudouin d'Aumeries
Assistance for programming : Marc-Olivier Méhu
Technical & hardware support : Manuel Goepfert

Contact : metmap@orbifly.com




SOURCES & CREDITS :

   NOAA